createdAt,value
2019-03-16T00:00:14.600Z,90.40
2019-03-16T00:02:43.013Z,90.60
2019-03-16T00:05:11.672Z,90.60
2019-03-16T00:07:40.089Z,90.60
2019-03-16T00:10:08.593Z,90.70
2019-03-16T00:12:37.294Z,90.70
2019-03-16T00:15:07.283Z,90.60
2019-03-16T00:17:35.945Z,90.50
2019-03-16T00:20:07.905Z,90.40
2019-03-16T00:22:36.337Z,90.20
2019-03-16T00:25:06.742Z,90.30
2019-03-16T00:27:35.149Z,90.50
2019-03-16T00:30:05.432Z,90.00
2019-03-16T00:32:33.858Z,90.00
2019-03-16T00:35:02.522Z,90.00
2019-03-16T00:37:31.177Z,89.80
2019-03-16T00:39:59.601Z,90.00
2019-03-16T00:42:28.267Z,89.80
2019-03-16T00:44:56.680Z,89.60
2019-03-16T00:47:25.110Z,89.90
2019-03-16T00:49:53.530Z,90.10
2019-03-16T00:52:21.964Z,89.90
2019-03-16T00:54:50.389Z,90.00
2019-03-16T00:57:19.062Z,89.90
2019-03-16T00:59:47.493Z,90.00
2019-03-16T01:02:26.633Z,90.00
2019-03-16T01:04:46.323Z,90.00
2019-03-16T01:07:14.774Z,90.10
2019-03-16T01:09:43.763Z,90.00
2019-03-16T01:12:12.378Z,90.00
2019-03-16T01:14:41.012Z,90.10
2019-03-16T01:17:09.461Z,90.00
2019-03-16T01:19:37.897Z,89.30
2019-03-16T01:22:06.309Z,89.00
2019-03-16T01:24:34.742Z,88.60
2019-03-16T01:27:03.149Z,88.80
2019-03-16T01:29:31.593Z,88.70
2019-03-16T01:32:00.005Z,88.30
2019-03-16T01:34:28.435Z,88.20
2019-03-16T01:36:57.097Z,88.40
2019-03-16T01:39:25.522Z,88.10
2019-03-16T01:41:53.917Z,88.10
2019-03-16T01:44:22.354Z,88.00
2019-03-16T01:46:50.793Z,87.80
2019-03-16T01:49:19.220Z,87.90
2019-03-16T01:51:47.646Z,88.10
2019-03-16T01:54:16.302Z,88.10
2019-03-16T01:56:44.969Z,88.20
2019-03-16T01:59:13.686Z,88.30
2019-03-16T02:01:42.106Z,87.90
2019-03-16T02:04:10.518Z,88.30
2019-03-16T02:06:38.964Z,87.90
2019-03-16T02:09:07.870Z,87.60
2019-03-16T02:11:36.336Z,88.10
2019-03-16T02:14:04.815Z,87.60
2019-03-16T02:16:33.462Z,88.40
2019-03-16T02:19:01.910Z,88.50
2019-03-16T02:21:30.576Z,88.50
2019-03-16T02:23:59.073Z,88.20
2019-03-16T02:26:27.777Z,88.60
2019-03-16T02:28:56.186Z,88.80
2019-03-16T02:31:24.649Z,88.40
2019-03-16T02:33:53.127Z,88.70
2019-03-16T02:36:21.565Z,88.90
2019-03-16T02:38:49.971Z,90.00
2019-03-16T02:41:18.639Z,90.20
2019-03-16T02:43:47.078Z,90.00
2019-03-16T02:46:15.498Z,89.50
2019-03-16T02:48:43.897Z,89.30
2019-03-16T02:51:12.569Z,89.40
2019-03-16T02:53:41.002Z,89.00
2019-03-16T02:56:09.422Z,89.00
2019-03-16T02:58:37.842Z,89.00
2019-03-16T03:01:06.279Z,88.40
2019-03-16T03:03:34.718Z,88.20
2019-03-16T03:06:03.157Z,88.10
2019-03-16T03:08:31.875Z,88.30
2019-03-16T03:11:00.560Z,89.00
2019-03-16T03:13:29.016Z,88.90
2019-03-16T03:15:57.680Z,87.70
2019-03-16T03:18:26.387Z,88.20
2019-03-16T03:20:54.820Z,88.30
2019-03-16T03:23:23.482Z,88.40
2019-03-16T03:25:51.927Z,87.80
2019-03-16T03:28:20.599Z,87.50
2019-03-16T03:30:49.129Z,87.10
2019-03-16T03:33:17.610Z,87.20
2019-03-16T03:35:46.040Z,87.40
2019-03-16T03:38:14.445Z,86.80
2019-03-16T03:40:42.881Z,86.00
2019-03-16T03:43:11.307Z,86.50
2019-03-16T03:45:39.722Z,85.30
2019-03-16T03:48:08.130Z,84.80
2019-03-16T03:50:36.778Z,85.00
2019-03-16T03:53:05.478Z,84.50
2019-03-16T03:55:33.897Z,84.90
2019-03-16T03:58:02.418Z,84.80
2019-03-16T04:00:30.902Z,85.10
2019-03-16T04:02:59.306Z,84.70
2019-03-16T04:05:27.797Z,84.70
2019-03-16T04:07:56.223Z,84.30
2019-03-16T04:10:24.866Z,84.00
2019-03-16T04:12:53.406Z,84.60
2019-03-16T04:15:21.831Z,84.20
2019-03-16T04:17:50.499Z,84.10
2019-03-16T04:20:18.922Z,83.70
2019-03-16T04:22:47.339Z,83.60
2019-03-16T04:25:15.754Z,83.70
2019-03-16T04:27:44.225Z,83.30
2019-03-16T04:30:13.025Z,83.70
2019-03-16T04:32:41.476Z,83.50
2019-03-16T04:35:10.152Z,83.60
2019-03-16T04:37:38.569Z,83.50
2019-03-16T04:40:09.284Z,83.70
2019-03-16T04:42:37.706Z,83.60
2019-03-16T04:45:12.706Z,83.50
2019-03-16T04:47:41.136Z,83.20
2019-03-16T04:50:11.458Z,83.10
2019-03-16T04:52:40.138Z,83.10
2019-03-16T04:55:09.222Z,83.20
2019-03-16T04:57:37.650Z,82.90
2019-03-16T05:00:11.243Z,83.10
2019-03-16T05:02:39.885Z,83.40
2019-03-16T05:05:08.420Z,83.20
2019-03-16T05:07:36.847Z,83.10
2019-03-16T05:10:08.619Z,83.30
2019-03-16T05:12:37.031Z,83.00
2019-03-16T05:15:07.181Z,83.00
2019-03-16T05:17:35.609Z,83.10
2019-03-16T05:20:06.163Z,82.80
2019-03-16T05:22:34.585Z,82.30
2019-03-16T05:25:03.167Z,82.10
2019-03-16T05:27:31.591Z,82.00
2019-03-16T05:30:00.374Z,81.50
2019-03-16T05:32:28.858Z,81.60
2019-03-16T05:34:57.268Z,81.60
2019-03-16T05:37:25.938Z,81.30
2019-03-16T05:39:54.605Z,81.20
2019-03-16T05:42:23.237Z,80.80
2019-03-16T05:44:51.689Z,80.30
2019-03-16T05:47:20.110Z,80.40
2019-03-16T05:49:48.526Z,79.70
2019-03-16T05:52:16.997Z,79.90
2019-03-16T05:54:45.433Z,79.90
2019-03-16T05:57:14.069Z,79.00
2019-03-16T05:59:42.518Z,78.80
2019-03-16T06:02:10.937Z,78.50
2019-03-16T06:04:39.354Z,78.50
2019-03-16T06:07:07.782Z,78.60
2019-03-16T06:09:36.434Z,78.50
2019-03-16T06:12:05.117Z,78.20
2019-03-16T06:14:33.765Z,77.80
2019-03-16T06:17:02.178Z,77.70
2019-03-16T06:19:30.585Z,78.20
2019-03-16T06:21:59.014Z,77.80
2019-03-16T06:24:28.213Z,77.60
2019-03-16T06:26:57.067Z,77.50
2019-03-16T06:29:25.722Z,77.60
2019-03-16T06:31:54.146Z,77.80
2019-03-16T06:34:22.562Z,77.70
2019-03-16T06:36:50.985Z,77.60
2019-03-16T06:39:19.406Z,77.70
2019-03-16T06:41:47.828Z,77.60
2019-03-16T06:44:16.234Z,77.50
2019-03-16T06:46:44.657Z,77.70
2019-03-16T06:49:13.090Z,77.20
2019-03-16T06:51:41.517Z,77.20
2019-03-16T06:54:09.930Z,77.20
2019-03-16T06:56:38.354Z,76.80
2019-03-16T06:59:06.790Z,76.70
2019-03-16T07:01:35.266Z,76.60
2019-03-16T07:04:03.678Z,76.70
2019-03-16T07:06:32.103Z,76.60
2019-03-16T07:09:00.521Z,77.10
2019-03-16T07:11:28.950Z,76.50
2019-03-16T07:13:57.372Z,75.90
2019-03-16T07:16:25.793Z,75.80
2019-03-16T07:18:59.084Z,75.70
2019-03-16T07:21:24.660Z,75.40
2019-03-16T07:23:53.105Z,75.40
2019-03-16T07:26:21.530Z,75.00
2019-03-16T07:28:50.185Z,75.00
2019-03-16T07:31:18.870Z,74.50
2019-03-16T07:33:47.288Z,74.60
2019-03-16T07:36:15.715Z,74.30
2019-03-16T07:38:44.137Z,74.80
2019-03-16T07:41:12.617Z,74.10
2019-03-16T07:43:41.059Z,73.60
2019-03-16T07:46:09.474Z,73.80
2019-03-16T07:48:37.901Z,73.20
2019-03-16T07:51:06.386Z,73.00
2019-03-16T07:53:35.062Z,72.40
2019-03-16T07:56:03.477Z,73.10
2019-03-16T07:58:31.906Z,73.00
2019-03-16T08:01:03.241Z,73.00
2019-03-16T08:03:30.738Z,72.70
2019-03-16T08:05:59.150Z,72.50
2019-03-16T08:08:27.586Z,72.00
2019-03-16T08:10:56.089Z,71.50
2019-03-16T08:13:24.775Z,71.40
2019-03-16T08:15:53.380Z,70.90
2019-03-16T08:18:21.819Z,71.00
2019-03-16T08:20:50.266Z,70.90
2019-03-16T08:23:20.659Z,71.20
2019-03-16T08:25:49.341Z,70.50
2019-03-16T08:28:17.775Z,70.10
2019-03-16T08:30:46.268Z,69.70
2019-03-16T08:33:14.699Z,69.40
2019-03-16T08:35:43.343Z,68.60
2019-03-16T08:38:11.883Z,67.80
2019-03-16T08:40:40.306Z,68.40
2019-03-16T08:43:08.745Z,68.20
2019-03-16T08:45:37.161Z,67.70
2019-03-16T08:48:05.590Z,67.00
2019-03-16T08:50:34.012Z,66.80
2019-03-16T08:53:02.689Z,67.20
2019-03-16T08:55:31.142Z,66.30
2019-03-16T08:58:06.026Z,66.70
2019-03-16T09:00:29.715Z,66.00
2019-03-16T09:02:58.159Z,65.50
2019-03-16T09:05:26.807Z,64.90
2019-03-16T09:07:55.519Z,65.00
2019-03-16T09:10:23.944Z,64.00
2019-03-16T09:12:55.236Z,63.20
2019-03-16T09:15:23.023Z,63.40
2019-03-16T09:17:51.458Z,62.60
2019-03-16T09:20:22.603Z,62.20
2019-03-16T09:22:51.708Z,60.90
2019-03-16T09:25:20.161Z,60.00
2019-03-16T09:27:50.526Z,59.10
2019-03-16T09:30:19.255Z,57.40
2019-03-16T09:32:47.701Z,57.10
2019-03-16T09:35:20.890Z,58.70
2019-03-16T09:37:49.610Z,58.10
2019-03-16T09:40:19.782Z,57.40
2019-03-16T09:42:48.728Z,56.40
2019-03-16T09:45:21.609Z,56.00
2019-03-16T09:47:50.834Z,55.50
2019-03-16T09:50:19.338Z,55.90
2019-03-16T09:52:49.923Z,54.40
2019-03-16T09:55:19.593Z,54.50
2019-03-16T09:57:48.187Z,54.30
2019-03-16T10:00:18.964Z,54.50
2019-03-16T10:02:47.596Z,52.80
2019-03-16T10:05:16.291Z,53.40
2019-03-16T10:07:44.791Z,52.40
2019-03-16T10:10:14.928Z,51.90
2019-03-16T10:12:44.914Z,50.90
2019-03-16T10:15:14.285Z,49.30
2019-03-16T10:17:42.936Z,46.50
2019-03-16T10:20:12.840Z,44.20
2019-03-16T10:22:41.533Z,43.70
2019-03-16T10:25:10.170Z,40.80
2019-03-16T10:27:40.440Z,39.70
